Time;durP1;ratioP1;P1;durP2;ratioP2;P2;SDS_P1;SDS_P2;PMS_P1;PMS_P2;Temp;Humidity;BMP_temperature;BMP_pressure;BME280_temperature;BME280_humidity;BME280_pressure;Samples;Min_cycle;Max_cycle;Signal;HPM_P1;HPM_P2
2022/07/03 00:00:07;;;;;;;5.93;4.20;;;16.50;99.90;;;;;;5069492;28;20768;-65
2022/07/03 00:02:35;;;;;;;5.83;4.93;;;16.50;99.90;;;;;;5069564;28;20467;-65
2022/07/03 00:05:02;;;;;;;6.20;4.73;;;16.60;99.90;;;;;;5069300;28;20454;-66
2022/07/03 00:07:29;;;;;;;6.27;4.37;;;16.60;99.90;;;;;;5069790;28;20461;-65
2022/07/03 00:09:56;;;;;;;7.40;4.20;;;16.60;99.90;;;;;;5069240;28;20454;-65
2022/07/03 00:12:23;;;;;;;4.67;4.00;;;16.70;99.90;;;;;;5063197;28;20477;-66
2022/07/03 00:14:50;;;;;;;5.63;4.20;;;16.70;99.90;;;;;;5069329;28;20526;-65
2022/07/03 00:17:17;;;;;;;4.70;4.20;;;16.70;99.90;;;;;;5069352;28;20497;-66
2022/07/03 00:19:45;;;;;;;4.70;3.90;;;16.70;99.90;;;;;;5068715;28;20464;-65
2022/07/03 00:22:14;;;;;;;4.70;4.07;;;16.70;99.90;;;;;;5069233;28;20475;-66
2022/07/03 00:24:44;;;;;;;6.10;4.03;;;16.60;99.90;;;;;;5069134;28;21109;-65
2022/07/03 00:27:12;;;;;;;6.53;3.97;;;16.60;99.90;;;;;;5069190;28;20487;-66
2022/07/03 00:29:41;;;;;;;8.13;4.00;;;16.60;99.90;;;;;;5062818;28;20462;-65
2022/07/03 00:32:11;;;;;;;4.67;4.23;;;16.60;99.90;;;;;;5068035;28;20467;-66
2022/07/03 00:34:39;;;;;;;5.70;5.10;;;16.50;99.90;;;;;;5068772;28;20549;-66
2022/07/03 00:37:09;;;;;;;4.93;4.40;;;16.40;99.90;;;;;;5071035;28;20495;-66
2022/07/03 00:39:38;;;;;;;5.60;4.30;;;16.20;99.90;;;;;;5075524;28;20952;-66
2022/07/03 00:42:06;;;;;;;4.70;4.17;;;16.00;99.90;;;;;;5068008;28;20478;-65
2022/07/03 00:44:36;;;;;;;8.00;4.50;;;16.00;99.90;;;;;;5068931;28;20459;-66
2022/07/03 00:47:05;;;;;;;4.77;3.90;;;15.90;99.90;;;;;;5068075;28;21057;-66
2022/07/03 00:49:34;;;;;;;5.60;4.00;;;15.80;99.90;;;;;;5069402;28;20462;-67
2022/07/03 00:52:04;;;;;;;6.20;4.80;;;15.80;99.90;;;;;;5068588;28;20498;-65
2022/07/03 00:54:34;;;;;;;6.60;4.70;;;15.70;99.90;;;;;;5068245;28;20455;-66
2022/07/03 00:57:01;;;;;;;5.50;4.87;;;15.80;99.90;;;;;;5068472;28;20447;-65
2022/07/03 00:59:28;;;;;;;5.30;4.60;;;15.70;99.90;;;;;;5068388;28;20458;-65
2022/07/03 01:02:04;;;;;;;6.90;4.80;;;15.80;99.90;;;;;;5068208;28;20467;-65
2022/07/03 01:04:40;;;;;;;5.20;4.50;;;15.80;99.90;;;;;;5068400;28;20534;-66
2022/07/03 01:07:12;;;;;;;6.27;4.17;;;15.80;99.90;;;;;;5068000;28;20487;-66
2022/07/03 01:09:51;;;;;;;5.17;4.00;;;15.80;99.90;;;;;;5067719;28;20470;-65
2022/07/03 01:12:24;;;;;;;4.97;4.47;;;15.80;99.90;;;;;;5063177;28;20535;-65
2022/07/03 01:15:00;;;;;;;8.27;4.53;;;15.70;99.90;;;;;;5069532;28;20449;-66
2022/07/03 01:17:34;;;;;;;8.30;3.97;;;15.70;99.90;;;;;;5070179;28;20438;-66
2022/07/03 01:20:04;;;;;;;4.40;4.00;;;15.80;99.90;;;;;;5069432;28;20443;-64
2022/07/03 01:22:33;;;;;;;7.00;4.03;;;15.70;99.90;;;;;;5069726;28;20466;-64
2022/07/03 01:25:22;;;;;;;6.10;4.10;;;15.60;99.90;;;;;;5069835;28;20833;-65
2022/07/03 01:27:59;;;;;;;5.33;3.93;;;15.60;99.90;;;;;;5069841;28;20450;-66
2022/07/03 01:30:28;;;;;;;4.77;3.70;;;15.60;99.90;;;;;;5069242;28;20940;-66
2022/07/03 01:33:00;;;;;;;4.73;3.77;;;15.60;99.90;;;;;;5069691;28;20474;-65
2022/07/03 01:35:33;;;;;;;5.17;4.50;;;15.60;99.90;;;;;;5069749;28;20525;-65
2022/07/03 01:38:05;;;;;;;5.90;4.10;;;15.60;99.90;;;;;;5069715;28;20817;-65
2022/07/03 01:40:35;;;;;;;4.77;4.33;;;15.60;99.90;;;;;;5069308;28;20447;-65
2022/07/03 01:43:05;;;;;;;4.20;3.53;;;15.60;99.90;;;;;;5069571;28;20550;-65
2022/07/03 01:45:35;;;;;;;8.60;3.87;;;15.50;99.90;;;;;;5069800;28;20449;-63
2022/07/03 01:48:05;;;;;;;4.93;3.67;;;15.40;99.90;;;;;;5069657;28;20835;-64
2022/07/03 01:50:33;;;;;;;4.80;4.20;;;15.40;99.90;;;;;;5069357;28;20455;-65
2022/07/03 01:53:02;;;;;;;4.63;4.00;;;15.50;99.90;;;;;;5069094;28;20467;-65
2022/07/03 01:55:32;;;;;;;5.00;4.50;;;15.40;99.90;;;;;;5069170;28;20454;-63
2022/07/03 01:57:59;;;;;;;6.43;4.27;;;15.40;99.90;;;;;;5073084;28;20536;-65
2022/07/03 02:00:29;;;;;;;6.33;4.37;;;15.30;99.90;;;;;;5077210;28;20442;-66
2022/07/03 02:03:02;;;;;;;4.43;3.70;;;15.30;99.90;;;;;;5074784;28;20461;-64
2022/07/03 02:05:35;;;;;;;4.20;3.80;;;15.30;99.90;;;;;;5069495;28;20461;-65
2022/07/03 02:08:12;;;;;;;4.73;4.20;;;15.30;99.90;;;;;;5073262;28;20439;-65
2022/07/03 02:10:45;;;;;;;4.93;4.43;;;15.20;99.90;;;;;;5076530;28;20492;-65
2022/07/03 02:13:18;;;;;;;5.40;4.90;;;15.10;99.90;;;;;;5084768;28;20462;-65
2022/07/03 02:15:50;;;;;;;4.93;4.43;;;15.00;99.90;;;;;;5074556;28;20450;-66
2022/07/03 02:18:27;;;;;;;5.33;4.83;;;14.90;99.90;;;;;;5092988;28;20445;-65
2022/07/03 02:21:04;;;;;;;5.43;4.90;;;15.00;99.90;;;;;;5093438;28;20433;-65
2022/07/03 02:23:36;;;;;;;5.80;4.27;;;14.90;99.90;;;;;;5093560;28;20470;-65
2022/07/03 02:26:05;;;;;;;5.50;4.60;;;14.90;99.90;;;;;;5093415;28;20482;-65
2022/07/03 02:28:51;;;;;;;5.33;4.37;;;14.90;99.90;;;;;;5093356;28;20449;-65
2022/07/03 02:31:22;;;;;;;5.00;4.50;;;14.90;99.90;;;;;;5090607;28;20444;-65
2022/07/03 02:33:51;;;;;;;5.53;4.63;;;14.80;99.90;;;;;;5070851;28;21287;-65
2022/07/03 02:36:21;;;;;;;6.40;4.43;;;14.70;99.90;;;;;;5074707;28;20440;-65
2022/07/03 02:38:54;;;;;;;5.10;4.60;;;14.70;99.90;;;;;;5077089;28;20441;-65
2022/07/03 02:41:25;;;;;;;6.83;4.70;;;14.70;99.90;;;;;;5077312;28;20437;-64
2022/07/03 02:44:02;;;;;;;7.53;5.13;;;14.70;99.90;;;;;;5064735;28;20435;-65
2022/07/03 02:46:50;;;;;;;5.10;4.60;;;14.70;99.90;;;;;;5056798;28;20931;-65
2022/07/03 02:49:27;;;;;;;8.33;5.40;;;14.60;99.90;;;;;;5052841;28;20447;-65
2022/07/03 02:52:03;;;;;;;6.10;5.50;;;14.70;99.90;;;;;;5052022;28;20857;-66
2022/07/03 02:54:40;;;;;;;5.70;5.17;;;14.70;99.90;;;;;;5052815;28;20442;-65
2022/07/03 02:57:08;;;;;;;5.63;5.10;;;14.80;99.90;;;;;;5052530;28;20438;-65
2022/07/03 02:59:47;;;;;;;5.67;4.80;;;14.80;99.90;;;;;;5052540;28;20444;-65
2022/07/03 03:02:20;;;;;;;6.30;5.13;;;14.70;99.90;;;;;;5052158;28;20464;-65
2022/07/03 03:04:53;;;;;;;9.00;5.10;;;14.70;99.90;;;;;;5052497;28;20454;-65
2022/07/03 03:07:27;;;;;;;6.67;4.13;;;14.70;99.90;;;;;;5052207;28;20578;-65
2022/07/03 03:09:54;;;;;;;5.30;4.80;;;14.80;99.90;;;;;;5052109;28;20533;-65
2022/07/03 03:12:30;;;;;;;4.60;4.20;;;14.80;99.90;;;;;;5052019;28;20479;-66
2022/07/03 03:15:04;;;;;;;4.50;4.10;;;14.70;99.90;;;;;;5052456;28;20440;-66
2022/07/03 03:17:42;;;;;;;5.30;4.80;;;14.70;99.90;;;;;;5051786;28;20432;-66
2022/07/03 03:20:12;;;;;;;5.07;4.23;;;14.70;99.90;;;;;;5051919;28;20964;-66
2022/07/03 03:22:55;;;;;;;5.07;4.00;;;14.70;99.90;;;;;;5052308;28;20460;-65
2022/07/03 03:25:22;;;;;;;4.90;3.70;;;14.70;99.90;;;;;;5052296;28;20450;-64
2022/07/03 03:27:49;;;;;;;4.87;4.37;;;14.70;99.90;;;;;;5052463;28;20498;-65
2022/07/03 03:30:16;;;;;;;5.43;3.80;;;14.70;99.90;;;;;;5051898;28;20448;-64
2022/07/03 03:32:45;;;;;;;5.23;4.00;;;14.80;99.90;;;;;;5052256;28;20494;-65
2022/07/03 03:35:12;;;;;;;5.17;4.10;;;14.80;99.90;;;;;;5052011;28;20461;-65
2022/07/03 03:37:39;;;;;;;4.87;3.83;;;14.70;99.90;;;;;;5052063;28;20455;-65
2022/07/03 03:40:07;;;;;;;4.80;4.40;;;14.80;99.90;;;;;;5051434;28;20451;-65
2022/07/03 03:42:34;;;;;;;5.00;4.27;;;14.70;99.90;;;;;;5051970;28;20526;-65
2022/07/03 03:45:01;;;;;;;4.03;3.63;;;14.70;99.90;;;;;;5051656;28;20448;-64
2022/07/03 03:47:27;;;;;;;4.80;4.30;;;14.60;99.90;;;;;;5051755;28;20483;-65
2022/07/03 03:49:56;;;;;;;5.00;4.50;;;14.70;99.90;;;;;;5051119;28;20497;-65
2022/07/03 03:52:23;;;;;;;4.37;3.97;;;14.70;99.90;;;;;;5051369;28;20475;-65
2022/07/03 03:54:50;;;;;;;4.53;4.10;;;14.70;99.90;;;;;;5051574;28;20455;-66
2022/07/03 03:57:21;;;;;;;5.50;4.27;;;14.70;99.90;;;;;;5051244;28;20447;-66
2022/07/03 03:59:49;;;;;;;4.07;3.67;;;14.70;99.90;;;;;;5051311;28;20451;-65
2022/07/03 04:02:16;;;;;;;4.90;3.90;;;14.70;99.90;;;;;;5051077;28;21048;-65
2022/07/03 04:04:43;;;;;;;5.00;4.07;;;14.80;99.90;;;;;;5051332;28;20585;-65
2022/07/03 04:07:11;;;;;;;4.53;4.00;;;14.80;99.90;;;;;;5051141;28;20483;-65
2022/07/03 04:09:38;;;;;;;4.70;4.20;;;14.90;99.90;;;;;;5051372;28;20455;-64
2022/07/03 04:12:06;;;;;;;4.37;3.83;;;15.00;99.90;;;;;;5050615;28;20483;-64
2022/07/03 04:14:33;;;;;;;4.87;4.37;;;15.00;99.90;;;;;;5051095;28;20985;-65
2022/07/03 04:17:00;;;;;;;4.70;4.23;;;15.10;99.90;;;;;;5050916;28;20462;-65
2022/07/03 04:19:26;;;;;;;6.00;4.10;;;15.20;99.90;;;;;;5050982;28;20447;-66
2022/07/03 04:21:53;;;;;;;5.50;4.83;;;15.10;99.90;;;;;;5050685;28;20475;-64
2022/07/03 04:24:22;;;;;;;5.00;4.03;;;15.10;99.90;;;;;;5051030;28;20455;-66
2022/07/03 04:26:49;;;;;;;7.93;4.57;;;15.20;99.90;;;;;;5050970;28;20494;-65
2022/07/03 04:29:16;;;;;;;6.87;4.30;;;15.20;99.90;;;;;;5050099;28;20956;-65
2022/07/03 04:31:42;;;;;;;5.00;4.40;;;15.20;99.90;;;;;;5050341;28;20451;-65
2022/07/03 04:34:09;;;;;;;4.33;3.90;;;15.30;99.90;;;;;;5050410;28;20471;-66
2022/07/03 04:36:37;;;;;;;4.80;4.10;;;15.50;99.90;;;;;;5050906;28;20532;-65
2022/07/03 04:39:04;;;;;;;4.10;3.70;;;15.50;99.90;;;;;;5050472;28;20463;-65
2022/07/03 04:41:32;;;;;;;6.20;3.80;;;15.60;99.90;;;;;;5049577;28;20448;-65
2022/07/03 04:43:59;;;;;;;4.20;3.80;;;15.50;99.90;;;;;;5049782;28;20456;-65
2022/07/03 04:46:25;;;;;;;5.90;4.80;;;15.70;99.90;;;;;;5050325;28;20459;-65
2022/07/03 04:48:52;;;;;;;5.43;4.27;;;15.70;99.90;;;;;;5050446;28;20447;-65
2022/07/03 04:51:19;;;;;;;3.93;3.53;;;15.80;99.90;;;;;;5050283;28;20461;-65
2022/07/03 04:53:46;;;;;;;5.40;4.00;;;15.80;99.90;;;;;;5050284;28;20464;-65
2022/07/03 04:56:12;;;;;;;5.73;3.70;;;15.90;99.90;;;;;;5050186;28;20448;-65
2022/07/03 04:58:40;;;;;;;4.47;3.73;;;16.00;99.90;;;;;;5050259;28;20451;-65
2022/07/03 05:01:07;;;;;;;5.17;4.17;;;16.00;99.90;;;;;;5049631;28;20458;-65
2022/07/03 05:03:34;;;;;;;4.30;3.90;;;16.20;99.90;;;;;;5050276;28;20480;-65
2022/07/03 05:06:01;;;;;;;4.40;3.97;;;16.30;99.90;;;;;;5050116;28;20455;-64
2022/07/03 05:08:28;;;;;;;6.27;3.80;;;16.30;99.90;;;;;;5049971;28;21009;-65
2022/07/03 05:10:54;;;;;;;4.83;3.90;;;16.40;99.90;;;;;;5049667;28;20448;-65
2022/07/03 05:13:22;;;;;;;4.77;3.87;;;16.60;99.90;;;;;;5049974;28;20483;-65
2022/07/03 05:15:50;;;;;;;4.83;3.50;;;16.80;99.90;;;;;;5049759;28;20444;-65
2022/07/03 05:18:17;;;;;;;5.17;3.87;;;16.80;99.90;;;;;;5049886;28;20960;-66
2022/07/03 05:20:43;;;;;;;4.03;3.30;;;16.90;99.90;;;;;;5049428;28;20796;-66
2022/07/03 05:23:10;;;;;;;4.73;3.30;;;16.90;99.90;;;;;;5049820;28;20466;-65
2022/07/03 05:25:37;;;;;;;5.53;3.63;;;17.00;99.90;;;;;;5049725;28;20442;-65
2022/07/03 05:28:04;;;;;;;4.27;3.60;;;17.10;99.90;;;;;;5049708;28;20488;-64
2022/07/03 05:30:31;;;;;;;3.90;3.20;;;17.10;99.90;;;;;;5049414;28;20948;-66
2022/07/03 05:32:59;;;;;;;4.90;4.17;;;17.20;99.90;;;;;;5049205;28;21004;-65
2022/07/03 05:35:25;;;;;;;4.90;3.87;;;17.20;99.90;;;;;;5049855;28;20440;-66
2022/07/03 05:37:53;;;;;;;3.67;3.30;;;17.40;99.90;;;;;;5049627;28;20462;-64
2022/07/03 05:40:20;;;;;;;4.03;3.63;;;17.50;99.90;;;;;;5049364;28;20452;-62
2022/07/03 05:42:47;;;;;;;3.50;3.20;;;17.50;99.90;;;;;;5048959;28;20479;-65
2022/07/03 05:45:13;;;;;;;5.00;3.20;;;17.60;99.90;;;;;;5049584;28;20467;-66
2022/07/03 05:47:40;;;;;;;5.53;4.47;;;17.70;99.90;;;;;;5049456;28;20542;-66
2022/07/03 05:50:10;;;;;;;3.50;3.20;;;17.80;99.90;;;;;;5049436;28;20813;-65
2022/07/03 05:52:37;;;;;;;3.73;3.17;;;17.90;99.90;;;;;;5049353;28;20539;-65
2022/07/03 05:55:04;;;;;;;4.50;3.67;;;18.00;99.90;;;;;;5049519;28;20443;-65
2022/07/03 05:57:31;;;;;;;4.30;3.40;;;18.10;99.90;;;;;;5049401;28;20454;-65
2022/07/03 05:59:58;;;;;;;4.00;3.57;;;18.10;99.90;;;;;;5049166;28;20444;-66
2022/07/03 06:02:24;;;;;;;5.23;3.10;;;18.30;99.90;;;;;;5049381;28;20486;-65
2022/07/03 06:04:51;;;;;;;3.00;2.50;;;18.40;99.90;;;;;;5049496;28;20447;-65
2022/07/03 06:07:19;;;;;;;3.33;2.40;;;18.50;99.90;;;;;;5049477;28;20855;-66
2022/07/03 06:09:48;;;;;;;3.77;3.37;;;18.60;99.90;;;;;;5048989;28;20456;-65
2022/07/03 06:12:14;;;;;;;3.87;3.20;;;18.70;99.90;;;;;;5049177;28;20859;-65
2022/07/03 06:14:41;;;;;;;3.57;2.87;;;18.80;99.90;;;;;;5049375;28;20455;-65
2022/07/03 06:17:08;;;;;;;3.30;2.83;;;19.00;99.90;;;;;;5049614;28;20447;-65
2022/07/03 06:19:35;;;;;;;4.17;3.20;;;19.10;99.90;;;;;;5049374;28;20444;-66
2022/07/03 06:22:01;;;;;;;4.10;3.30;;;19.30;99.90;;;;;;5049234;28;20471;-65
2022/07/03 06:24:30;;;;;;;4.60;3.07;;;19.40;99.90;;;;;;5049411;28;20458;-66
2022/07/03 06:26:56;;;;;;;5.23;3.00;;;19.50;99.90;;;;;;5049373;28;20456;-66
2022/07/03 06:29:25;;;;;;;3.57;2.97;;;19.60;99.90;;;;;;5072324;28;20449;-66
2022/07/03 06:31:51;;;;;;;4.03;2.90;;;19.70;99.90;;;;;;5065696;28;20558;-66
2022/07/03 06:34:18;;;;;;;3.73;2.70;;;19.80;99.90;;;;;;5077745;28;20453;-65
2022/07/03 06:36:45;;;;;;;3.43;3.10;;;19.90;99.90;;;;;;5060619;28;20432;-65
2022/07/03 06:39:12;;;;;;;3.47;2.80;;;20.10;99.90;;;;;;5064143;28;20467;-65
2022/07/03 06:41:40;;;;;;;3.90;2.80;;;20.20;99.90;;;;;;5067439;28;21121;-66
2022/07/03 06:44:07;;;;;;;4.23;2.63;;;20.30;99.90;;;;;;5076833;28;20453;-65
2022/07/03 06:46:34;;;;;;;4.13;2.70;;;20.50;99.90;;;;;;5072221;28;20477;-65
2022/07/03 06:49:00;;;;;;;3.40;2.67;;;20.60;99.90;;;;;;5080914;28;20474;-64
2022/07/03 06:51:27;;;;;;;2.97;2.67;;;20.80;99.90;;;;;;5076352;28;20436;-65
2022/07/03 06:53:54;;;;;;;3.50;2.50;;;21.00;99.90;;;;;;5070922;28;20466;-66
2022/07/03 06:56:21;;;;;;;3.90;2.23;;;21.20;99.90;;;;;;5072648;28;20450;-66
2022/07/03 06:58:49;;;;;;;2.70;2.27;;;21.20;99.90;;;;;;5075536;28;20441;-65
2022/07/03 07:01:15;;;;;;;3.40;2.50;;;21.40;99.90;;;;;;5078232;28;20437;-66
2022/07/03 07:03:42;;;;;;;3.30;2.60;;;21.50;99.90;;;;;;5072269;28;20466;-66
2022/07/03 07:06:09;;;;;;;5.40;2.83;;;21.60;99.90;;;;;;5072431;28;20447;-66
2022/07/03 07:08:36;;;;;;;3.00;2.40;;;21.60;99.90;;;;;;5072284;28;20494;-66
2022/07/03 07:11:02;;;;;;;4.50;2.70;;;21.70;99.90;;;;;;5072106;28;20454;-66
2022/07/03 07:13:29;;;;;;;3.77;2.40;;;21.70;99.90;;;;;;5072153;28;20474;-66
2022/07/03 07:15:57;;;;;;;3.40;2.80;;;21.80;99.90;;;;;;5072413;28;20443;-66
2022/07/03 07:18:24;;;;;;;3.30;2.60;;;22.00;99.90;;;;;;5080413;28;20931;-66
2022/07/03 07:20:51;;;;;;;4.17;2.77;;;22.20;99.90;;;;;;5071678;28;20455;-66
2022/07/03 07:23:18;;;;;;;5.70;2.90;;;22.30;99.90;;;;;;5072345;28;20467;-66
2022/07/03 07:25:44;;;;;;;4.90;2.23;;;22.50;99.90;;;;;;5071890;28;20467;-65
2022/07/03 07:28:11;;;;;;;7.63;2.67;;;22.50;99.90;;;;;;5071934;28;20482;-66
2022/07/03 07:30:39;;;;;;;3.47;2.43;;;22.60;99.90;;;;;;5071594;28;20443;-65
2022/07/03 07:33:08;;;;;;;3.50;2.87;;;22.70;99.90;;;;;;5071758;28;20541;-66
2022/07/03 07:35:35;;;;;;;4.50;2.40;;;22.80;99.90;;;;;;5071608;28;20831;-66
2022/07/03 07:38:01;;;;;;;4.10;2.83;;;22.90;99.90;;;;;;5071764;28;20443;-65
2022/07/03 07:40:28;;;;;;;2.97;2.40;;;23.00;99.90;;;;;;5071167;28;20451;-66
2022/07/03 07:42:55;;;;;;;3.63;2.70;;;23.00;99.90;;;;;;5072146;28;20467;-64
2022/07/03 07:45:22;;;;;;;3.60;2.83;;;23.10;99.90;;;;;;5073074;28;20533;-62
2022/07/03 07:47:49;;;;;;;6.60;2.70;;;23.20;99.90;;;;;;5072177;28;20474;-63
2022/07/03 07:50:17;;;;;;;4.17;2.47;;;23.30;99.90;;;;;;5071979;28;20446;-65
2022/07/03 07:52:43;;;;;;;10.37;3.90;;;23.40;99.90;;;;;;5074744;28;20470;-61
2022/07/03 07:55:10;;;;;;;5.43;2.40;;;23.60;99.90;;;;;;5078805;28;20526;-63
2022/07/03 07:57:37;;;;;;;4.03;2.53;;;23.70;99.90;;;;;;5073039;28;21020;-63
2022/07/03 08:00:08;;;;;;;3.40;2.07;;;23.70;99.90;;;;;;5072673;28;20473;-64
2022/07/03 08:05:39;;;;;;;3.33;2.40;;;23.90;99.90;;;;;;5072343;28;20208;-64
2022/07/03 08:08:08;;;;;;;2.87;2.03;;;24.10;99.90;;;;;;5072459;28;20474;-64
2022/07/03 08:10:36;;;;;;;4.63;2.23;;;24.20;99.90;;;;;;5072228;28;20968;-64
2022/07/03 08:13:04;;;;;;;3.30;2.10;;;24.30;99.90;;;;;;5071496;28;20467;-66
2022/07/03 08:15:31;;;;;;;3.07;1.60;;;24.40;99.90;;;;;;5072385;28;20454;-64
2022/07/03 08:17:57;;;;;;;2.90;2.00;;;24.50;99.90;;;;;;5071027;28;20446;-59
2022/07/03 08:20:26;;;;;;;2.90;2.00;;;24.70;99.90;;;;;;5070345;28;20451;-63
2022/07/03 08:22:53;;;;;;;3.60;2.30;;;24.80;99.90;;;;;;5077460;28;21006;-69
2022/07/03 08:25:19;;;;;;;3.90;1.93;;;25.00;99.90;;;;;;5061053;28;20447;-65
2022/07/03 08:27:46;;;;;;;3.10;1.97;;;25.20;99.90;;;;;;5086465;28;20438;-64
2022/07/03 08:30:17;;;;;;;2.80;2.07;;;25.30;99.90;;;;;;5076017;28;20443;-64
2022/07/03 08:32:44;;;;;;;2.50;1.80;;;25.50;99.90;;;;;;5069562;28;20477;-66
2022/07/03 08:35:11;;;;;;;3.07;1.70;;;25.60;99.90;;;;;;5077812;28;20438;-64
2022/07/03 08:37:42;;;;;;;3.53;1.80;;;25.50;99.90;;;;;;5071072;28;20474;-65
2022/07/03 08:40:10;;;;;;;2.70;1.70;;;25.70;99.90;;;;;;5070876;28;20477;-65
2022/07/03 08:42:38;;;;;;;2.63;1.80;;;25.80;99.90;;;;;;5071243;28;20463;-64
2022/07/03 08:45:07;;;;;;;4.67;2.03;;;25.80;99.90;;;;;;5070895;28;20508;-66
2022/07/03 08:47:35;;;;;;;2.30;1.70;;;25.80;99.90;;;;;;5071190;28;20443;-66
2022/07/03 08:50:02;;;;;;;2.40;1.30;;;25.80;99.90;;;;;;5076858;28;21027;-66
2022/07/03 08:52:29;;;;;;;2.30;1.60;;;26.00;99.70;;;;;;5070627;28;20552;-65
2022/07/03 08:54:57;;;;;;;2.80;1.60;;;26.10;99.90;;;;;;5064109;28;20453;-66
2022/07/03 08:57:26;;;;;;;2.47;1.60;;;26.20;99.90;;;;;;5066441;28;20455;-70
2022/07/03 08:59:54;;;;;;;2.60;1.53;;;26.40;99.90;;;;;;5067827;28;20808;-65
2022/07/03 09:02:22;;;;;;;2.00;1.20;;;26.50;99.90;;;;;;5065926;28;20532;-65
2022/07/03 09:04:49;;;;;;;2.30;1.03;;;26.60;99.90;;;;;;5069253;28;20453;-65
2022/07/03 09:07:19;;;;;;;6.13;1.77;;;26.70;99.90;;;;;;5072126;28;20442;-66
2022/07/03 09:09:47;;;;;;;2.20;1.27;;;26.80;95.90;;;;;;5085229;28;20490;-63
2022/07/03 09:12:15;;;;;;;2.30;1.17;;;26.80;96.20;;;;;;5083550;28;20466;-66
2022/07/03 09:14:42;;;;;;;2.90;1.10;;;26.80;94.10;;;;;;5084416;28;20496;-66
2022/07/03 09:17:10;;;;;;;4.33;1.30;;;26.80;91.70;;;;;;5082587;28;20457;-66
2022/07/03 09:19:45;;;;;;;2.00;1.07;;;26.90;92.00;;;;;;5082227;28;20470;-65
2022/07/03 09:22:22;;;;;;;1.73;1.00;;;26.90;91.10;;;;;;5076456;28;20996;-66
2022/07/03 09:24:50;;;;;;;2.47;1.17;;;27.00;91.10;;;;;;5060548;28;20458;-66
2022/07/03 09:27:20;;;;;;;2.80;1.53;;;27.00;91.30;;;;;;5067410;28;20871;-65
2022/07/03 09:30:01;;;;;;;3.37;1.70;;;27.00;91.60;;;;;;5078854;28;20497;-66
2022/07/03 09:32:32;;;;;;;2.47;1.20;;;27.00;89.20;;;;;;5071342;28;20842;-69
2022/07/03 09:35:23;;;;;;;2.87;1.10;;;27.10;89.20;;;;;;5073828;28;20462;-66
2022/07/03 09:37:52;;;;;;;2.43;1.10;;;27.20;86.70;;;;;;5074268;28;20519;-66
2022/07/03 09:40:19;;;;;;;1.90;1.10;;;27.40;86.20;;;;;;5064287;28;20949;-67
2022/07/03 09:43:01;;;;;;;3.60;1.90;;;27.50;85.60;;;;;;5082386;28;21023;-66
2022/07/03 09:45:28;;;;;;;2.37;1.47;;;27.50;89.60;;;;;;5066605;28;20462;-70
2022/07/03 09:47:55;;;;;;;2.33;1.20;;;27.60;90.40;;;;;;5062875;28;20802;-68
2022/07/03 09:50:22;;;;;;;2.50;1.20;;;27.70;91.50;;;;;;5062628;28;20497;-67
2022/07/03 09:52:49;;;;;;;1.90;1.10;;;27.80;86.80;;;;;;5065534;28;20593;-69
2022/07/03 09:55:18;;;;;;;1.93;1.03;;;27.90;81.70;;;;;;5064709;28;20441;-65
2022/07/03 09:57:47;;;;;;;3.10;1.17;;;28.10;83.50;;;;;;5063331;28;20478;-65
2022/07/03 10:00:17;;;;;;;2.87;1.50;;;28.30;86.50;;;;;;5065778;28;20450;-66
2022/07/03 10:02:54;;;;;;;2.33;1.13;;;28.60;85.90;;;;;;5064506;28;20470;-65
2022/07/03 10:05:22;;;;;;;5.23;1.23;;;29.10;86.20;;;;;;5064833;28;20447;-65
2022/07/03 10:07:57;;;;;;;2.17;1.10;;;29.60;81.70;;;;;;5063597;28;21381;-66
2022/07/03 10:10:26;;;;;;;1.90;1.07;;;30.40;80.30;;;;;;5062867;28;20580;-68
2022/07/03 10:12:54;;;;;;;2.00;1.10;;;30.90;80.40;;;;;;5063538;28;20467;-66
2022/07/03 10:15:23;;;;;;;1.80;1.00;;;31.70;73.30;;;;;;5064304;28;20949;-66
2022/07/03 10:17:52;;;;;;;2.47;1.00;;;32.20;73.60;;;;;;5064578;28;20454;-65
2022/07/03 10:20:26;;;;;;;2.33;1.20;;;31.80;70.80;;;;;;5065954;28;20454;-66
2022/07/03 10:22:54;;;;;;;2.40;1.13;;;31.30;73.60;;;;;;5063841;28;21189;-67
2022/07/03 10:25:21;;;;;;;3.47;1.33;;;31.40;69.50;;;;;;5063994;28;20457;-66
2022/07/03 10:27:49;;;;;;;2.07;1.13;;;31.70;74.20;;;;;;5065956;28;20991;-67
2022/07/03 10:30:17;;;;;;;2.50;0.90;;;32.40;75.10;;;;;;5069006;28;20483;-72
2022/07/03 10:32:48;;;;;;;1.80;0.90;;;33.30;70.60;;;;;;5066824;28;20532;-67
2022/07/03 10:35:18;;;;;;;2.43;1.03;;;34.30;67.10;;;;;;5069164;28;20446;-65
2022/07/03 10:37:57;;;;;;;1.70;0.80;;;34.60;64.80;;;;;;5068535;28;20461;-67
2022/07/03 10:46:12;;;;;;;2.20;1.20;;;33.30;63.30;;;;;;5069439;28;20450;-67
2022/07/03 10:49:01;;;;;;;2.53;0.90;;;33.20;64.80;;;;;;5068688;28;21172;-67
2022/07/03 10:51:29;;;;;;;3.43;1.40;;;34.00;66.00;;;;;;5062529;28;20450;-66
2022/07/03 10:54:16;;;;;;;2.33;1.10;;;34.00;62.60;;;;;;5068646;28;20463;-67
2022/07/03 10:57:08;;;;;;;1.90;1.00;;;33.50;59.30;;;;;;5067917;28;20439;-67
2022/07/03 11:00:05;;;;;;;3.53;1.20;;;32.70;61.10;;;;;;5067760;28;20527;-66
2022/07/03 11:02:37;;;;;;;2.10;1.00;;;32.50;61.60;;;;;;5067548;28;20470;-66
2022/07/03 11:05:12;;;;;;;3.00;1.30;;;32.50;63.50;;;;;;5067406;28;20439;-66
2022/07/03 11:08:07;;;;;;;2.27;1.00;;;32.50;60.10;;;;;;5069318;28;21208;-66
2022/07/03 11:10:42;;;;;;;1.97;1.10;;;32.30;62.30;;;;;;5068158;28;21008;-67
2022/07/03 11:13:17;;;;;;;2.17;1.00;;;32.40;62.70;;;;;;5068048;28;20454;-67
2022/07/03 11:15:46;;;;;;;2.17;1.10;;;33.00;61.30;;;;;;5062407;28;20457;-67
2022/07/03 11:18:28;;;;;;;2.33;1.13;;;33.50;62.90;;;;;;5067111;28;20455;-67
2022/07/03 11:21:23;;;;;;;2.77;1.00;;;34.10;60.50;;;;;;5066245;28;21777;-67
2022/07/03 11:24:13;;;;;;;2.53;1.40;;;34.50;60.90;;;;;;5066723;28;20467;-66
2022/07/03 11:26:40;;;;;;;1.90;1.00;;;34.60;58.60;;;;;;5067619;28;20439;-66
2022/07/03 11:29:06;;;;;;;2.83;1.20;;;33.80;60.80;;;;;;5066981;28;20486;-64
2022/07/03 11:31:33;;;;;;;2.00;1.03;;;33.40;61.10;;;;;;5068712;28;20459;-66
2022/07/03 11:34:01;;;;;;;1.70;1.10;;;33.50;61.70;;;;;;5058738;28;20819;-67
2022/07/03 11:36:31;;;;;;;1.90;1.03;;;33.50;62.40;;;;;;5046502;28;21411;-66
2022/07/03 11:39:08;;;;;;;2.00;1.10;;;33.20;60.80;;;;;;5046107;28;21068;-66
2022/07/03 11:41:46;;;;;;;2.30;1.60;;;33.10;62.70;;;;;;5044374;28;20488;-65
2022/07/03 11:44:21;;;;;;;1.90;1.20;;;33.50;63.60;;;;;;5046087;28;20440;-65
2022/07/03 11:46:50;;;;;;;2.30;1.23;;;34.00;61.10;;;;;;5042860;28;20451;-66
2022/07/03 11:49:18;;;;;;;2.20;1.17;;;34.70;59.50;;;;;;5048876;28;20482;-66
2022/07/03 11:51:57;;;;;;;2.13;1.10;;;34.70;58.10;;;;;;5047316;28;20454;-65
2022/07/03 11:54:25;;;;;;;1.90;1.17;;;34.30;59.60;;;;;;5046201;28;20555;-66
2022/07/03 11:56:52;;;;;;;2.10;1.23;;;34.10;60.80;;;;;;5045670;28;20459;-66
2022/07/03 11:59:19;;;;;;;2.50;1.10;;;33.70;61.40;;;;;;5068686;28;20450;-66
2022/07/03 12:01:47;;;;;;;2.33;1.33;;;33.10;59.60;;;;;;5066552;28;20435;-67
2022/07/03 12:04:17;;;;;;;2.13;1.40;;;32.50;61.60;;;;;;5064750;28;20454;-66
2022/07/03 12:06:48;;;;;;;2.63;1.27;;;32.50;64.50;;;;;;5068308;28;20798;-66
2022/07/03 12:09:18;;;;;;;2.03;1.10;;;32.90;61.40;;;;;;5059781;28;22058;-66
2022/07/03 12:11:56;;;;;;;2.37;1.20;;;32.90;61.20;;;;;;5062526;28;20446;-67
2022/07/03 12:14:43;;;;;;;2.00;1.20;;;33.30;61.30;;;;;;5067883;28;20442;-64
2022/07/03 12:17:12;;;;;;;3.70;1.20;;;34.40;61.50;;;;;;5062687;28;20454;-66
2022/07/03 12:19:39;;;;;;;2.00;1.30;;;34.40;59.50;;;;;;5064367;28;21813;-67
2022/07/03 12:22:07;;;;;;;2.00;1.40;;;35.00;60.20;;;;;;5066427;28;20470;-65
2022/07/03 12:24:34;;;;;;;2.03;1.30;;;34.80;57.40;;;;;;5068420;28;20458;-66
2022/07/03 12:27:04;;;;;;;2.80;1.30;;;33.80;59.70;;;;;;5067771;28;21130;-66
2022/07/03 12:29:31;;;;;;;2.47;1.37;;;33.00;59.50;;;;;;5067379;28;20506;-66
2022/07/03 12:31:58;;;;;;;2.23;1.37;;;32.60;65.30;;;;;;5066351;28;20487;-66
2022/07/03 12:34:25;;;;;;;9.50;8.70;;;32.90;67.20;;;;;;5062922;28;20480;-67
2022/07/03 12:36:57;;;;;;;44.70;40.83;;;33.80;66.50;;;;;;5067416;28;20443;-67
2022/07/03 12:39:40;;;;;;;5.97;5.47;;;34.60;62.60;;;;;;5066641;28;20439;-67
2022/07/03 12:42:15;;;;;;;5.33;4.83;;;34.70;61.70;;;;;;5065772;28;20520;-67
2022/07/03 12:44:42;;;;;;;3.73;3.20;;;34.40;61.00;;;;;;5066840;28;20447;-67
2022/07/03 12:47:09;;;;;;;11.83;10.80;;;35.10;62.20;;;;;;5066664;28;20446;-66
2022/07/03 12:49:36;;;;;;;7.20;6.50;;;35.90;64.70;;;;;;5066329;28;20863;-64
2022/07/03 12:52:03;;;;;;;2.23;1.57;;;36.80;63.00;;;;;;5056113;28;20939;-64
2022/07/03 12:54:35;;;;;;;3.13;2.10;;;37.20;54.20;;;;;;5063169;28;20850;-67
2022/07/03 12:59:16;;;;;;;7.63;6.97;;;37.50;55.80;;;;;;5065860;28;20442;-67
2022/07/03 13:00:04;;;;;;;2.70;2.33;;;37.10;57.40;;;;;;5063758;28;20470;-67
2022/07/03 13:02:31;;;;;;;3.53;1.67;;;35.80;56.60;;;;;;5061900;28;20509;-67
2022/07/03 13:05:00;;;;;;;2.90;1.50;;;34.60;55.80;;;;;;5067552;28;20465;-67
2022/07/03 13:07:29;;;;;;;2.40;1.10;;;34.00;57.90;;;;;;5064828;28;20458;-68